Time;durP1;ratioP1;P1;durP2;ratioP2;P2;SDS_P1;SDS_P2;PMS_P1;PMS_P2;Temp;Humidity;BMP_temperature;BMP_pressure;BME280_temperature;BME280_humidity;BME280_pressure;Samples;Min_cycle;Max_cycle;Signal;HPM_P1;HPM_P2
2022/06/03 00:00:07;;;;;;;7.32;6.63;;;;;;;12.90;71.23;101829.31;5098395;28;20426;-64
2022/06/03 00:03:16;;;;;;;7.93;6.47;;;;;;;12.89;71.58;101832.84;5098578;28;20111;-64
2022/06/03 00:05:44;;;;;;;6.95;6.25;;;;;;;12.81;71.49;101834.63;5076326;28;20048;-64
2022/06/03 00:08:49;;;;;;;8.77;6.30;;;;;;;12.84;71.19;101834.59;5098403;28;20034;-64
2022/06/03 00:11:49;;;;;;;7.03;6.32;;;;;;;12.79;71.38;101833.78;5015923;28;20032;-64
2022/06/03 00:14:17;;;;;;;6.70;6.00;;;;;;;12.76;71.65;101835.56;5098224;28;20032;-64
2022/06/03 00:16:49;;;;;;;6.63;6.03;;;;;;;12.62;71.90;101822.53;5098137;28;20032;-64
2022/06/03 00:19:35;;;;;;;6.40;5.80;;;;;;;12.72;71.38;101839.06;5098508;28;20024;-64
2022/06/03 00:22:12;;;;;;;8.18;6.25;;;;;;;12.63;72.02;101828.66;5098325;28;20040;-63
2022/06/03 00:24:58;;;;;;;7.65;6.85;;;;;;;12.57;71.90;101836.56;5098266;28;20044;-64
2022/06/03 00:28:03;;;;;;;6.65;5.93;;;;;;;12.53;72.21;101828.69;5098000;28;20047;-64
2022/06/03 00:31:01;;;;;;;7.05;6.20;;;;;;;12.53;72.43;101825.19;5097173;28;20079;-63
2022/06/03 00:33:37;;;;;;;7.20;6.50;;;;;;;12.54;73.97;101837.44;5097525;28;20111;-64
2022/06/03 00:36:54;;;;;;;7.78;6.38;;;;;;;12.52;73.62;101839.19;5098266;28;20020;-64
2022/06/03 00:39:50;;;;;;;9.35;6.13;;;;;;;12.51;73.79;101832.19;5042071;28;20035;-64
2022/06/03 00:42:46;;;;;;;7.78;6.57;;;;;;;12.48;74.08;101826.97;5097782;28;20039;-64
2022/06/03 00:45:30;;;;;;;6.97;6.15;;;;;;;12.46;75.01;101824.38;5097713;28;20406;-64
2022/06/03 00:47:58;;;;;;;7.30;6.13;;;;;;;12.36;74.53;101827.03;5097490;28;20043;-64
2022/06/03 00:50:50;;;;;;;8.82;6.88;;;;;;;12.34;74.67;101836.66;5097657;28;20055;-64
2022/06/03 00:53:18;;;;;;;7.82;6.60;;;;;;;12.20;75.54;101829.72;5097103;28;20462;-63
2022/06/03 00:56:21;;;;;;;7.32;6.55;;;;;;;12.28;75.32;101828.84;5097305;28;20355;-64
2022/06/03 00:59:05;;;;;;;;;;;;;;;12.32;73.16;101827.91;5098245;28;20024;-64
2022/06/03 01:01:45;;;;;;;8.15;7.00;;;;;;;12.18;74.34;101826.22;5097036;28;19912;-63
2022/06/03 01:04:26;;;;;;;8.60;6.88;;;;;;;12.06;74.71;101826.28;5097633;28;20343;-63
2022/06/03 01:07:12;;;;;;;8.88;6.63;;;;;;;12.03;76.25;101828.94;5097338;28;20038;-64
2022/06/03 01:09:48;;;;;;;7.75;7.03;;;;;;;12.01;76.55;101828.06;5097135;28;20416;-63
2022/06/03 01:12:32;;;;;;;8.00;6.85;;;;;;;11.99;77.26;101819.31;5097294;28;20042;-63
2022/06/03 01:15:02;;;;;;;7.68;6.88;;;;;;;12.01;77.58;101819.31;5079387;28;20392;-64
2022/06/03 01:17:33;;;;;;;7.65;6.53;;;;;;;12.01;77.43;101804.44;5097393;28;20043;-64
2022/06/03 01:20:12;;;;;;;8.00;7.20;;;;;;;12.10;77.11;101812.28;5096880;28;20072;-64
2022/06/03 01:23:05;;;;;;;8.45;6.88;;;;;;;12.08;75.83;101808.81;5096980;28;20036;-64
2022/06/03 01:25:30;;;;;;;7.30;6.60;;;;;;;12.11;76.71;101811.41;5097092;28;20051;-63
2022/06/03 01:28:22;;;;;;;7.80;6.82;;;;;;;12.03;75.77;101799.19;5096684;28;20360;-64
2022/06/03 01:31:30;;;;;;;8.55;7.25;;;;;;;12.05;75.86;101794.81;5096875;28;20339;-63
2022/06/03 01:33:58;;;;;;;8.50;7.00;;;;;;;12.06;77.61;101796.56;5096858;28;20043;-64
2022/06/03 01:36:42;;;;;;;8.10;7.30;;;;;;;12.09;77.08;101802.69;5097037;28;20054;-63
2022/06/03 01:39:39;;;;;;;7.95;7.05;;;;;;;12.11;75.79;101793.06;5096460;28;20084;-64
2022/06/03 01:42:42;;;;;;;8.57;7.15;;;;;;;12.11;75.54;101795.66;5097222;28;20398;-64
2022/06/03 01:45:19;;;;;;;8.07;6.95;;;;;;;12.12;76.76;101784.28;5096614;28;20055;-64
2022/06/03 01:48:02;;;;;;;8.70;7.03;;;;;;;12.15;76.53;101791.25;5096431;28;20040;-63
2022/06/03 01:51:05;;;;;;;8.15;7.15;;;;;;;12.20;76.22;101790.38;5096325;28;20485;-64
2022/06/03 01:53:49;;;;;;;;;;;;;;;12.20;74.99;101782.50;5096625;28;20043;-63
2022/06/03 01:56:31;;;;;;;7.43;6.70;;;;;;;12.19;76.79;101785.13;5096342;28;20002;-63
2022/06/03 01:58:56;;;;;;;;;;;;;;;12.20;74.88;101782.50;5097063;28;20089;-63
2022/06/03 02:01:25;;;;;;;7.27;6.57;;;;;;;12.06;77.47;101775.56;5096540;28;19945;-63
2022/06/03 02:04:16;;;;;;;8.68;6.95;;;;;;;12.08;76.38;101785.19;5096125;28;20278;-64
2022/06/03 02:07:06;;;;;;;8.18;7.38;;;;;;;12.04;76.25;101782.56;5096144;28;20071;-64
2022/06/03 02:10:16;;;;;;;7.28;6.60;;;;;;;12.05;76.47;101772.06;5096136;28;20028;-64
2022/06/03 02:12:58;;;;;;;7.82;7.00;;;;;;;11.99;76.89;101763.34;5095899;28;20032;-63
2022/06/03 02:15:42;;;;;;;7.57;6.57;;;;;;;11.96;77.78;101768.59;5096199;28;20030;-63
2022/06/03 02:18:19;;;;;;;7.88;7.07;;;;;;;11.91;77.49;101767.78;5095739;28;20036;-63
2022/06/03 02:20:55;;;;;;;8.00;7.07;;;;;;;11.87;77.81;101766.03;5095903;28;20032;-64
2022/06/03 02:23:26;;;;;;;8.20;7.32;;;;;;;11.83;77.56;101775.66;5095776;28;20454;-63
2022/06/03 02:26:19;;;;;;;8.30;7.37;;;;;;;11.83;76.64;101770.41;5095772;28;20131;-63
2022/06/03 02:32:05;;;;;;;11.63;7.32;;;;;;;11.68;79.23;101779.19;5095633;28;20127;-63
2022/06/03 02:35:04;;;;;;;8.00;7.20;;;;;;;11.68;77.68;101766.06;5095629;28;20028;-63
2022/06/03 02:37:59;;;;;;;7.85;7.05;;;;;;;11.65;78.05;101766.06;5095577;28;20036;-63
2022/06/03 02:40:57;;;;;;;9.73;7.57;;;;;;;11.57;78.40;101769.59;5095618;28;20032;-63
2022/06/03 02:43:41;;;;;;;9.70;7.65;;;;;;;11.53;79.50;101766.13;5093679;28;20036;-64
2022/06/03 02:46:12;;;;;;;8.45;7.65;;;;;;;11.54;79.90;101767.00;5095644;28;20039;-63
2022/06/03 02:48:49;;;;;;;8.77;7.30;;;;;;;11.54;80.33;101756.50;5095243;28;20445;-63
2022/06/03 02:51:17;;;;;;;9.18;7.88;;;;;;;11.50;80.72;101751.25;5096214;28;20036;-63
2022/06/03 02:54:14;;;;;;;9.38;7.95;;;;;;;11.49;80.21;101749.50;5095293;28;20042;-63
2022/06/03 02:57:18;;;;;;;9.57;7.65;;;;;;;11.43;80.47;101752.13;5095518;28;20119;-63
2022/06/03 03:00:05;;;;;;;9.35;7.72;;;;;;;11.37;81.16;101759.16;5095424;28;20350;-63
2022/06/03 03:02:55;;;;;;;9.10;8.18;;;;;;;11.35;81.31;101758.28;5095581;28;20043;-63
2022/06/03 03:06:08;;;;;;;8.52;7.70;;;;;;;11.38;79.98;101755.66;5095293;28;20035;-63
2022/06/03 03:08:54;;;;;;;10.90;7.78;;;;;;;11.32;80.65;101759.16;5094990;28;20028;-63
2022/06/03 03:11:45;;;;;;;9.95;8.27;;;;;;;11.31;80.67;101769.66;5095089;28;20089;-63
2022/06/03 03:14:22;;;;;;;9.52;7.85;;;;;;;11.27;81.49;101760.91;5095605;28;20115;-63
2022/06/03 03:16:58;;;;;;;12.80;8.70;;;;;;;11.25;81.02;101762.69;5095097;28;20032;-63
2022/06/03 03:19:45;;;;;;;9.65;8.63;;;;;;;11.16;81.91;101747.84;5095000;28;20046;-63
2022/06/03 03:22:29;;;;;;;9.15;8.25;;;;;;;11.19;82.48;101744.34;5095401;28;20059;-63
2022/06/03 03:25:08;;;;;;;9.68;8.77;;;;;;;11.23;82.69;101750.47;5095098;28;20048;-63
2022/06/03 03:28:08;;;;;;;10.10;8.88;;;;;;;11.22;81.56;101744.34;5095044;28;20042;-63
2022/06/03 03:30:44;;;;;;;9.52;8.52;;;;;;;11.23;82.38;101746.09;5097095;28;20032;-63
2022/06/03 03:33:31;;;;;;;10.05;9.02;;;;;;;11.26;82.36;101734.72;5099126;28;20024;-63
2022/06/03 03:36:38;;;;;;;9.40;8.50;;;;;;;11.24;81.96;101737.34;5098929;28;20039;-63
2022/06/03 03:39:32;;;;;;;9.98;8.98;;;;;;;11.22;81.64;101736.50;5099179;28;20024;-63
2022/06/03 03:42:25;;;;;;;9.63;8.52;;;;;;;11.24;81.43;101729.50;5098977;28;20033;-63
2022/06/03 03:45:04;;;;;;;10.57;9.05;;;;;;;11.18;81.99;101732.13;5098798;28;20078;-63
2022/06/03 03:47:51;;;;;;;10.40;9.27;;;;;;;11.18;81.91;101728.63;5099318;28;20028;-63
2022/06/03 03:50:45;;;;;;;12.05;9.25;;;;;;;11.11;82.06;101735.63;5098673;28;20028;-66
2022/06/03 03:53:29;;;;;;;11.00;9.30;;;;;;;11.12;83.16;101733.00;5098355;28;20039;-63
2022/06/03 03:56:25;;;;;;;10.90;9.02;;;;;;;11.17;82.64;101733.00;5098664;28;20049;-63
2022/06/03 03:59:27;;;;;;;12.68;9.27;;;;;;;11.11;81.93;101730.38;5098490;28;20039;-63
2022/06/03 04:02:21;;;;;;;10.63;9.32;;;;;;;11.09;82.80;101734.75;5098793;28;20054;-63
2022/06/03 04:04:58;;;;;;;10.18;9.13;;;;;;;11.08;83.30;101726.00;5098443;28;20355;-63
2022/06/03 04:07:38;;;;;;;10.68;9.45;;;;;;;11.02;83.79;101719.91;5098489;28;20036;-63
2022/06/03 04:10:34;;;;;;;10.40;9.32;;;;;;;11.08;82.84;101719.94;5098510;28;20051;-63
2022/06/03 04:13:24;;;;;;;10.70;9.15;;;;;;;11.07;83.77;101724.28;5098425;28;20331;-63
2022/06/03 04:16:01;;;;;;;10.50;9.45;;;;;;;11.09;83.48;101722.50;5098131;28;20472;-63
2022/06/03 04:18:51;;;;;;;10.13;9.05;;;;;;;11.10;82.80;101726.00;5098170;28;20024;-63
2022/06/03 04:21:28;;;;;;;10.43;9.32;;;;;;;11.10;83.27;101718.16;5098320;28;20035;-63
2022/06/03 04:24:20;;;;;;;10.18;9.18;;;;;;;11.08;82.78;101718.16;5097759;28;20066;-63
2022/06/03 04:26:57;;;;;;;10.68;9.35;;;;;;;11.08;83.00;101719.94;5096808;28;20067;-63
2022/06/03 04:30:02;;;;;;;11.25;9.50;;;;;;;11.08;82.75;101712.91;5096726;28;20042;-63
2022/06/03 04:32:55;;;;;;;10.95;9.80;;;;;;;11.09;83.10;101712.03;5096322;28;20451;-64
2022/06/03 04:35:38;;;;;;;11.00;9.45;;;;;;;11.09;83.22;101705.91;5096707;28;20082;-64
2022/06/03 04:38:40;;;;;;;11.95;9.45;;;;;;;11.12;83.09;101711.16;5096943;28;20041;-64
2022/06/03 04:41:35;;;;;;;;;;;;;;;11.16;81.92;101718.16;5096851;28;20052;-63
2022/06/03 04:44:31;;;;;;;10.82;9.27;;;;;;;11.26;82.60;101725.09;5096790;28;19915;-63
2022/06/03 04:47:27;;;;;;;11.32;9.80;;;;;;;11.34;82.74;101728.59;5096329;28;20058;-64
2022/06/03 04:50:29;;;;;;;12.50;9.45;;;;;;;11.41;82.66;101732.94;5096824;28;20016;-63
2022/06/03 04:53:23;;;;;;;;;;;;;;;11.48;81.35;101725.94;5096601;28;20050;-63
2022/06/03 04:55:55;;;;;;;11.25;9.80;;;;;;;11.56;82.88;101745.13;5096610;28;20014;-63
2022/06/03 04:58:20;;;;;;;11.25;9.35;;;;;;;11.46;82.66;101717.19;5096370;28;20024;-63
2022/06/03 05:01:04;;;;;;;11.43;9.87;;;;;;;11.63;82.68;101732.88;5096253;28;20092;-64
2022/06/03 05:03:56;;;;;;;11.48;9.88;;;;;;;11.67;82.18;101726.75;5096092;28;20277;-63
2022/06/03 05:06:33;;;;;;;12.07;9.85;;;;;;;11.74;81.76;101724.09;5096078;28;20039;-63
2022/06/03 05:09:57;;;;;;;11.02;9.90;;;;;;;11.81;81.52;101730.22;5096267;28;20044;-63
2022/06/03 05:12:47;;;;;;;13.20;9.88;;;;;;;11.85;81.94;101730.19;5095031;28;20460;-65
2022/06/03 05:15:51;;;;;;;10.63;9.52;;;;;;;11.89;81.10;101717.94;5096059;28;20046;-64
2022/06/03 05:18:28;;;;;;;11.07;9.98;;;;;;;11.94;81.49;101726.66;5095716;28;20031;-64
2022/06/03 05:21:33;;;;;;;10.30;9.10;;;;;;;12.00;80.73;101721.38;5095833;28;20028;-64
2022/06/03 05:24:16;;;;;;;11.45;10.05;;;;;;;12.06;81.42;101712.59;5059574;28;1043614;-63
2022/06/03 05:27:27;;;;;;;10.55;9.40;;;;;;;12.11;80.49;101706.47;5099025;28;20192;-64
2022/06/03 05:29:54;;;;;;;11.10;9.82;;;;;;;12.20;80.31;101703.78;5091132;28;20043;-64
2022/06/03 05:32:56;;;;;;;11.65;9.27;;;;;;;12.24;80.30;101706.38;5117370;28;20333;-65
2022/06/03 05:35:55;;;;;;;10.43;9.32;;;;;;;12.31;79.90;101698.44;5117350;28;20092;-64
2022/06/03 05:38:40;;;;;;;9.65;8.70;;;;;;;12.42;79.53;101707.13;5117092;28;20461;-64
2022/06/03 05:44:41;;;;;;;10.98;8.73;;;;;;;12.65;78.43;101706.94;5117400;28;20071;-64
2022/06/03 05:47:12;;;;;;;10.73;8.57;;;;;;;12.82;77.64;101702.41;5066499;28;20396;-64
2022/06/03 05:49:59;;;;;;;11.13;8.57;;;;;;;12.90;77.60;101705.84;5104930;28;20035;-59
2022/06/03 05:52:38;;;;;;;10.15;9.00;;;;;;;13.18;76.68;101701.22;5115998;28;20216;-60
2022/06/03 05:55:20;;;;;;;10.85;8.35;;;;;;;13.20;77.04;101699.44;5116819;28;20431;-61
2022/06/03 05:58:05;;;;;;;11.82;8.80;;;;;;;13.21;76.53;101702.94;5116745;28;20104;-62
2022/06/03 06:00:48;;;;;;;10.68;8.60;;;;;;;13.26;77.19;101711.66;5106647;28;20438;-60
2022/06/03 06:03:35;;;;;;;11.48;8.77;;;;;;;13.31;76.98;101714.25;5104720;28;20039;-58
2022/06/03 06:06:28;;;;;;;9.65;8.32;;;;;;;13.43;76.54;101712.34;5105621;28;20028;-61
2022/06/03 06:08:54;;;;;;;8.50;7.60;;;;;;;13.95;73.96;101701.19;5106768;28;20053;-64
2022/06/03 06:11:38;;;;;;;9.33;8.33;;;;;;;13.93;74.19;101698.56;5108357;28;20039;-64
2022/06/03 06:14:33;;;;;;;9.13;7.70;;;;;;;13.88;74.04;101707.41;5113760;28;20282;-64
2022/06/03 06:17:29;;;;;;;8.90;8.00;;;;;;;13.75;74.47;101700.56;5105037;28;20491;-64
2022/06/03 06:20:06;;;;;;;9.70;7.93;;;;;;;13.75;74.41;101708.47;5104952;28;20046;-64
2022/06/03 06:22:38;;;;;;;9.90;7.97;;;;;;;13.74;74.04;101704.09;5091709;28;20359;-65
2022/06/03 06:25:13;;;;;;;10.90;7.90;;;;;;;13.70;73.59;101694.47;5104150;28;20036;-64
2022/06/03 06:28:02;;;;;;;11.88;7.95;;;;;;;13.75;73.22;101688.28;5105747;28;20829;-65
2022/06/03 06:31:00;;;;;;;8.65;7.65;;;;;;;13.93;73.33;101710.84;5099477;28;20035;-66
2022/06/03 06:33:50;;;;;;;9.98;7.53;;;;;;;13.97;73.19;101702.03;5094797;28;20055;-64
2022/06/03 06:36:49;;;;;;;8.60;7.40;;;;;;;14.07;72.92;101702.75;5095848;28;20097;-64
2022/06/03 06:39:26;;;;;;;8.18;7.38;;;;;;;14.14;72.80;101696.53;5095508;28;20059;-64
2022/06/03 06:42:08;;;;;;;8.40;7.50;;;;;;;14.13;73.06;101698.28;5095127;28;20058;-64
2022/06/03 06:44:46;;;;;;;8.82;7.07;;;;;;;14.18;72.30;101692.97;5095445;28;20305;-64
2022/06/03 06:47:25;;;;;;;8.50;7.30;;;;;;;14.22;72.34;101689.38;5095411;28;20024;-64
2022/06/03 06:50:12;;;;;;;10.05;6.55;;;;;;;14.34;72.31;101702.38;5095396;28;20447;-64
2022/06/03 06:52:50;;;;;;;7.85;7.03;;;;;;;14.43;71.98;101699.63;5095434;28;20461;-64
2022/06/03 06:55:41;;;;;;;8.85;7.07;;;;;;;14.53;71.12;101703.00;5095176;28;20027;-64
2022/06/03 06:58:28;;;;;;;9.13;6.95;;;;;;;14.59;71.40;101693.22;5095208;28;20031;-64
2022/06/03 07:00:54;;;;;;;9.05;6.85;;;;;;;14.70;70.27;101700.09;5094977;28;20046;-64
2022/06/03 07:03:29;;;;;;;7.97;6.88;;;;;;;14.76;70.11;101708.75;5095479;28;20387;-64
2022/06/03 07:06:06;;;;;;;9.27;6.55;;;;;;;14.77;69.78;101697.31;5102078;28;20037;-65
2022/06/03 07:09:09;;;;;;;9.43;6.75;;;;;;;14.86;69.75;101699.81;5115676;28;20032;-64
2022/06/03 07:11:44;;;;;;;7.65;6.80;;;;;;;14.96;69.25;101704.00;5084969;28;20090;-64
2022/06/03 07:14:20;;;;;;;9.75;6.93;;;;;;;14.94;68.81;101692.63;5104751;28;20082;-64
2022/06/03 07:20:09;;;;;;;9.43;7.85;;;;;;;15.18;69.29;101698.34;5104563;28;20097;-64
2022/06/03 07:22:51;;;;;;;8.95;8.02;;;;;;;15.23;68.57;101680.69;5097761;28;20489;-63
2022/06/03 07:25:36;;;;;;;9.05;8.15;;;;;;;15.38;69.05;101684.78;5095149;28;20040;-62
2022/06/03 07:28:08;;;;;;;11.60;7.65;;;;;;;15.48;67.94;101692.47;5096225;28;20118;-64
2022/06/03 07:30:52;;;;;;;10.13;7.63;;;;;;;15.58;68.26;101682.66;5115451;28;20062;-64
2022/06/03 07:33:39;;;;;;;12.45;7.95;;;;;;;15.77;68.72;101675.19;5115296;28;20111;-64
2022/06/03 07:36:21;;;;;;;11.48;8.15;;;;;;;15.80;67.97;101681.28;5113908;28;20109;-63
2022/06/03 07:38:52;;;;;;;10.07;8.57;;;;;;;15.83;67.75;101688.25;5104265;28;20031;-64
2022/06/03 07:41:31;;;;;;;11.35;9.20;;;;;;;15.87;68.08;101676.75;5115177;28;20027;-64
2022/06/03 07:44:16;;;;;;;11.32;8.80;;;;;;;15.91;68.17;101681.94;5115207;28;20112;-65
2022/06/03 07:46:49;;;;;;;10.65;8.07;;;;;;;15.98;67.68;101677.34;5114735;28;20032;-64
2022/06/03 07:49:15;;;;;;;10.80;7.80;;;;;;;16.05;67.10;101680.75;5115033;28;20027;-64
2022/06/03 07:51:46;;;;;;;11.85;8.30;;;;;;;16.13;66.09;101666.44;5115260;28;20034;-64
2022/06/03 07:54:20;;;;;;;11.32;8.23;;;;;;;16.18;65.22;101672.50;5096961;28;20039;-61
2022/06/03 07:56:45;;;;;;;11.27;8.30;;;;;;;16.08;66.79;101660.44;5115058;28;20510;-64
2022/06/03 07:59:19;;;;;;;12.55;7.97;;;;;;;16.21;66.80;101680.34;5115158;28;20043;-64
2022/06/03 08:01:59;;;;;;;10.40;8.35;;;;;;;16.20;66.11;101683.91;5114816;28;20084;-64
2022/06/03 08:04:27;;;;;;;10.43;8.52;;;;;;;16.30;67.01;101682.75;5115080;28;20056;-64
2022/06/03 08:12:34;;;;;;;10.63;9.52;;;;;;;16.61;66.22;101663.53;5115330;28;20446;-64
2022/06/03 08:15:13;;;;;;;10.88;9.73;;;;;;;16.70;65.24;101652.75;5115055;28;20032;-64
2022/06/03 08:17:39;;;;;;;11.45;9.45;;;;;;;16.81;63.85;101644.53;5118339;28;20024;-63
2022/06/03 08:20:05;;;;;;;12.35;9.55;;;;;;;16.89;65.38;101648.72;5118369;28;20059;-65
2022/06/03 08:22:31;;;;;;;12.40;11.18;;;;;;;16.94;64.88;101638.03;5118581;28;20020;-63
2022/06/03 08:25:00;;;;;;;13.07;11.10;;;;;;;16.95;64.86;101642.41;5118519;28;20086;-64
2022/06/03 08:27:33;;;;;;;14.32;11.00;;;;;;;17.00;64.97;101644.00;5118710;28;20035;-64
2022/06/03 08:30:07;;;;;;;11.98;10.77;;;;;;;17.07;65.10;101649.13;5118283;28;20031;-64
2022/06/03 08:32:34;;;;;;;12.93;11.55;;;;;;;17.07;65.83;101651.78;5117959;28;20032;-64
2022/06/03 08:35:04;;;;;;;12.45;11.15;;;;;;;17.03;65.37;101636.00;5114512;28;20046;-63
2022/06/03 08:37:35;;;;;;;13.77;10.88;;;;;;;17.19;65.00;101647.00;5118324;28;20028;-62
2022/06/03 08:40:16;;;;;;;12.40;11.10;;;;;;;17.38;64.81;101645.59;5118522;28;20434;-63
2022/06/03 08:42:56;;;;;;;12.63;11.30;;;;;;;17.62;63.56;101641.38;5118200;28;20027;-64
2022/06/03 08:45:41;;;;;;;12.52;11.25;;;;;;;17.79;63.28;101640.03;5118234;28;20027;-61
2022/06/03 08:48:12;;;;;;;13.23;10.95;;;;;;;17.95;62.70;101635.97;5111901;28;20047;-63
2022/06/03 08:50:59;;;;;;;12.77;11.00;;;;;;;18.19;62.12;101640.47;5105103;28;20031;-63
2022/06/03 08:53:40;;;;;;;12.35;11.05;;;;;;;18.48;60.37;101643.97;5105925;28;20035;-63
2022/06/03 08:56:10;;;;;;;11.43;10.40;;;;;;;18.86;60.51;101651.53;5106775;28;20015;-64
2022/06/03 08:58:42;;;;;;;12.10;10.75;;;;;;;18.98;58.19;101656.41;5107840;28;20111;-64
2022/06/03 09:01:40;;;;;;;12.35;10.98;;;;;;;19.34;59.15;101643.59;5106686;28;20040;-65
2022/06/03 09:04:11;;;;;;;11.18;10.02;;;;;;;20.06;56.35;101644.38;5089129;28;20082;-64
2022/06/03 09:06:49;;;;;;;11.17;9.97;;;;;;;20.64;54.86;101642.00;5105713;28;20020;-63
2022/06/03 09:09:25;;;;;;;10.20;9.20;;;;;;;21.14;53.28;101630.94;5107801;28;20031;-63
2022/06/03 09:11:59;;;;;;;11.07;9.50;;;;;;;21.96;50.31;101627.13;5107106;28;20077;-63
2022/06/03 09:14:27;;;;;;;11.20;8.18;;;;;;;22.65;47.87;101629.06;5106251;28;20023;-64
2022/06/03 09:17:06;;;;;;;7.82;7.03;;;;;;;23.47;44.58;101611.34;5106419;28;20027;-64
2022/06/03 09:19:38;;;;;;;8.85;7.95;;;;;;;23.81;44.00;101629.09;5106976;28;20024;-63
2022/06/03 09:22:12;;;;;;;8.80;7.05;;;;;;;24.15;44.27;101622.69;5105998;28;20024;-64
2022/06/03 09:24:40;;;;;;;8.82;7.47;;;;;;;24.33;41.04;101621.63;5105718;28;20035;-63
2022/06/03 09:27:08;;;;;;;7.15;6.53;;;;;;;23.76;42.36;101629.34;5105409;28;20072;-64
2022/06/03 09:29:34;;;;;;;9.95;5.50;;;;;;;24.52;40.97;101629.44;5105369;28;20378;-63
2022/06/03 09:32:06;;;;;;;9.07;7.93;;;;;;;24.36;41.15;101629.50;5104007;28;20039;-62
2022/06/03 09:34:41;;;;;;;8.35;6.80;;;;;;;23.48;42.28;101629.97;5117355;28;20036;-65
2022/06/03 09:37:10;;;;;;;7.25;5.93;;;;;;;23.11;42.89;101625.75;5117542;28;20031;-64
2022/06/03 09:39:35;;;;;;;8.27;6.38;;;;;;;22.76;42.79;101624.91;5117155;28;20045;-62
2022/06/03 09:42:03;;;;;;;7.68;6.03;;;;;;;22.31;42.81;101611.25;5117144;28;20419;-63
2022/06/03 09:44:29;;;;;;;5.60;5.10;;;;;;;22.23;44.37;101614.28;5117227;28;20035;-58
2022/06/03 09:47:01;;;;;;;5.88;5.28;;;;;;;22.10;44.81;101618.50;5116918;28;20354;-62
2022/06/03 09:49:28;;;;;;;5.93;5.43;;;;;;;22.11;44.82;101620.22;5116805;28;20115;-62
2022/06/03 09:51:59;;;;;;;7.18;5.60;;;;;;;22.11;44.18;101620.22;5099840;28;20044;-62
2022/06/03 09:54:39;;;;;;;8.73;6.03;;;;;;;22.09;46.04;101616.75;5114286;28;20031;-61
2022/06/03 09:57:16;;;;;;;6.00;4.75;;;;;;;22.15;44.44;101621.81;5116927;28;20110;-61
2022/06/03 09:59:54;;;;;;;6.82;4.65;;;;;;;22.33;44.16;101615.56;5116571;28;20073;-61
2022/06/03 10:02:19;;;;;;;4.63;4.22;;;;;;;22.39;42.49;101612.56;5104794;28;20039;-62
2022/06/03 10:04:45;;;;;;;5.35;4.47;;;;;;;22.46;43.05;101600.66;5110832;28;20065;-61
2022/06/03 10:07:11;;;;;;;5.00;4.53;;;;;;;22.55;42.16;101608.19;5102871;28;20434;-61
2022/06/03 10:12:50;;;;;;;4.22;3.17;;;;;;;22.70;41.76;101603.00;5105684;28;20489;-61
2022/06/03 10:15:43;;;;;;;3.38;3.08;;;;;;;22.68;40.87;101604.91;5105222;28;20443;-60
2022/06/03 10:18:20;;;;;;;3.60;3.20;;;;;;;22.62;41.11;101594.53;5110265;28;20027;-60
2022/06/03 10:20:47;;;;;;;4.30;3.05;;;;;;;22.71;39.17;101594.03;5116041;28;20347;-61
2022/06/03 10:23:12;;;;;;;4.30;3.03;;;;;;;22.79;40.10;101565.19;5116125;28;20035;-60
2022/06/03 10:25:52;;;;;;;3.30;3.00;;;;;;;22.91;40.61;101585.91;5116039;28;20656;-60
2022/06/03 10:28:18;;;;;;;4.97;2.50;;;;;;;23.00;40.82;101582.75;5116141;28;20108;-60
2022/06/03 10:30:57;;;;;;;3.40;2.80;;;;;;;23.03;39.80;101585.22;5116149;28;20110;-61
2022/06/03 10:33:22;;;;;;;3.42;2.95;;;;;;;23.21;38.23;101573.56;5115654;28;20057;-61
2022/06/03 10:35:50;;;;;;;2.67;2.47;;;;;;;23.20;38.66;101576.34;5116163;28;20024;-61
2022/06/03 10:38:20;;;;;;;4.07;2.63;;;;;;;23.26;38.46;101576.84;5105760;28;20042;-57
2022/06/03 10:40:50;;;;;;;4.90;3.53;;;;;;;23.18;37.45;101568.41;5106157;28;20020;-62
2022/06/03 10:43:32;;;;;;;3.10;2.80;;;;;;;23.26;38.75;101578.66;5103120;28;20366;-59
2022/06/03 10:46:26;;;;;;;3.13;2.78;;;;;;;23.23;38.73;101573.47;5114752;28;20042;-61
2022/06/03 10:48:52;;;;;;;4.05;2.22;;;;;;;23.24;37.39;101577.88;5093038;28;20044;-62
2022/06/03 11:02:44;;;;;;;2.95;1.85;;;;;;;23.81;35.91;101578.28;5098528;28;20055;-64
2022/06/03 11:05:31;;;;;;;2.20;2.00;;;;;;;23.85;36.81;101558.47;5106961;28;20408;-64
2022/06/03 11:08:09;;;;;;;2.70;1.60;;;;;;;24.11;34.41;101557.78;5100749;28;20032;-65
2022/06/03 11:10:44;;;;;;;1.90;1.60;;;;;;;24.15;34.08;101566.50;5099069;28;20145;-65
2022/06/03 11:13:12;;;;;;;3.17;1.77;;;;;;;23.92;33.50;101555.34;5103755;28;20035;-63
2022/06/03 11:15:44;;;;;;;2.53;1.98;;;;;;;23.80;34.21;101558.72;5100457;28;20043;-63
2022/06/03 11:18:28;;;;;;;4.85;1.50;;;;;;;23.74;34.54;101553.72;5104113;28;20116;-62
2022/06/03 11:20:54;;;;;;;1.80;1.70;;;;;;;23.65;33.20;101561.41;5095189;28;20036;-64
2022/06/03 11:23:21;;;;;;;4.90;2.00;;;;;;;23.58;33.27;101550.19;5099740;28;20599;-63
2022/06/03 11:26:00;;;;;;;4.57;2.03;;;;;;;23.62;34.76;101550.88;5104491;28;20077;-65
2022/06/03 11:28:33;;;;;;;2.25;1.90;;;;;;;23.74;35.57;101551.03;5094801;28;20089;-64
2022/06/03 11:31:05;;;;;;;3.00;1.60;;;;;;;23.99;34.94;101549.63;5107239;28;20064;-65
2022/06/03 11:33:46;;;;;;;3.75;1.65;;;;;;;24.01;34.30;101548.59;5103529;28;20039;-65
2022/06/03 11:36:21;;;;;;;2.50;2.30;;;;;;;23.88;34.97;101532.41;5107425;28;20424;-64
2022/06/03 11:38:54;;;;;;;3.08;2.00;;;;;;;24.02;34.51;101549.47;5110899;28;20519;-64
2022/06/03 11:41:30;;;;;;;2.90;1.80;;;;;;;24.20;34.89;101553.75;5098160;28;20439;-63
2022/06/03 11:44:27;;;;;;;2.67;2.20;;;;;;;24.01;34.34;101553.94;5098227;28;20090;-64
2022/06/03 11:47:10;;;;;;;2.40;2.20;;;;;;;23.81;34.80;101544.41;5100801;28;20047;-65
2022/06/03 11:49:36;;;;;;;3.17;1.70;;;;;;;23.88;34.68;101542.25;5094308;28;20530;-65
2022/06/03 11:52:01;;;;;;;2.72;2.20;;;;;;;23.89;32.99;101539.50;5100068;28;20064;-64
2022/06/03 11:54:28;;;;;;;3.78;2.10;;;;;;;24.04;34.04;101551.09;5100095;28;20092;-64
2022/06/03 11:56:54;;;;;;;2.60;2.00;;;;;;;24.06;34.36;101543.00;5098495;28;20035;-65
2022/06/03 11:59:39;;;;;;;2.47;2.10;;;;;;;24.07;34.69;101553.56;5104793;28;20035;-64
2022/06/03 12:02:12;;;;;;;3.72;1.90;;;;;;;24.11;35.56;101555.13;5114057;28;20066;-65
2022/06/03 12:04:57;;;;;;;2.50;2.30;;;;;;;24.32;34.21;101554.84;5109634;28;20031;-63
2022/06/03 12:07:58;;;;;;;2.67;2.00;;;;;;;24.51;35.83;101552.78;5105976;28;20446;-65
2022/06/03 12:10:40;;;;;;;2.42;2.20;;;;;;;24.54;33.94;101552.63;5106436;28;20030;-64
2022/06/03 12:13:17;;;;;;;3.15;1.85;;;;;;;24.66;33.18;101537.63;5106304;28;20050;-67
2022/06/03 12:16:00;;;;;;;2.80;2.00;;;;;;;24.83;33.20;101542.78;5107801;28;20036;-64
2022/06/03 12:18:31;;;;;;;3.38;1.95;;;;;;;24.79;33.61;101533.22;5099952;28;20361;-54
2022/06/03 12:21:00;;;;;;;1.55;1.45;;;;;;;25.14;33.72;101525.69;5116192;28;20051;-54
2022/06/03 12:23:25;;;;;;;3.30;2.33;;;;;;;25.17;32.50;101530.84;5118214;28;20053;-57
2022/06/03 12:25:57;;;;;;;3.55;1.73;;;;;;;25.28;32.78;101518.50;5116871;28;20024;-57
2022/06/03 12:28:29;;;;;;;2.25;1.63;;;;;;;25.28;32.71;101518.50;5105484;28;20032;-57
2022/06/03 12:30:58;;;;;;;2.63;1.98;;;;;;;25.19;32.67;101524.44;5097838;28;20032;-57
2022/06/03 12:33:42;;;;;;;2.97;1.92;;;;;;;25.03;32.65;101514.81;5101250;28;20028;-57
2022/06/03 12:36:30;;;;;;;3.78;3.13;;;;;;;25.16;33.10;101519.28;5109422;28;20046;-55
2022/06/03 12:38:55;;;;;;;1.88;1.45;;;;;;;25.23;31.45;101517.94;5116582;28;20032;-63
2022/06/03 12:41:46;;;;;;;2.20;1.90;;;;;;;25.17;32.21;101520.16;5109573;28;20078;-63
2022/06/03 12:44:23;;;;;;;2.40;1.58;;;;;;;25.21;31.35;101510.97;5097527;28;20035;-63
2022/06/03 12:46:49;;;;;;;3.05;1.58;;;;;;;25.38;31.60;101507.19;5105071;28;20531;-63
2022/06/03 12:49:23;;;;;;;2.42;1.30;;;;;;;25.47;32.54;101511.94;5117892;28;20028;-63
2022/06/03 12:52:05;;;;;;;3.15;1.50;;;;;;;25.35;32.29;101510.06;5106257;28;20034;-64
2022/06/03 12:54:32;;;;;;;6.35;1.60;;;;;;;25.32;31.83;101505.75;5097607;28;20024;-64
2022/06/03 12:56:57;;;;;;;1.67;1.40;;;;;;;25.42;32.53;101508.72;5097219;28;20097;-65